Time;durP1;ratioP1;P1;durP2;ratioP2;P2;SDS_P1;SDS_P2;PMS_P1;PMS_P2;Temp;Humidity;BMP_temperature;BMP_pressure;BME280_temperature;BME280_humidity;BME280_pressure;Samples;Min_cycle;Max_cycle;Signal;HPM_P1;HPM_P2
2023/09/29 00:01:29;;;;;;;8.25;5.70;;;17.60;99.90;;;;;;5087479;28;20062;-78
2023/09/29 00:04:17;;;;;;;13.10;7.05;;;17.50;99.90;;;;;;5082051;27;20193;-78
2023/09/29 00:07:03;;;;;;;8.30;6.53;;;17.50;99.90;;;;;;5098762;28;20052;-76
2023/09/29 00:09:49;;;;;;;8.93;6.70;;;17.50;99.90;;;;;;5071259;27;20035;-77
2023/09/29 00:12:39;;;;;;;12.52;8.15;;;17.50;99.90;;;;;;5100901;28;20046;-77
2023/09/29 00:15:25;;;;;;;12.10;7.28;;;17.50;99.90;;;;;;5070533;27;20113;-77
2023/09/29 00:18:11;;;;;;;11.10;7.55;;;17.50;99.90;;;;;;5099898;28;20040;-77
2023/09/29 00:20:57;;;;;;;15.18;8.13;;;17.40;99.90;;;;;;5093688;28;20100;-77
2023/09/29 00:23:43;;;;;;;10.68;7.43;;;17.50;99.90;;;;;;5085719;27;20135;-77
2023/09/29 00:26:29;;;;;;;10.32;7.15;;;17.40;99.90;;;;;;5096882;28;20089;-76
2023/09/29 00:29:15;;;;;;;8.77;7.63;;;17.30;99.90;;;;;;5074364;27;20055;-77
2023/09/29 00:32:01;;;;;;;12.23;7.80;;;17.30;99.90;;;;;;5080528;28;20036;-77
2023/09/29 00:34:47;;;;;;;12.88;7.68;;;17.30;99.90;;;;;;5092866;28;20090;-76
2023/09/29 00:37:33;;;;;;;9.68;7.82;;;17.20;99.90;;;;;;5105930;27;20042;-76
2023/09/29 00:40:19;;;;;;;13.07;7.90;;;17.20;99.90;;;;;;5100062;28;20040;-76
2023/09/29 00:43:06;;;;;;;12.98;7.45;;;17.20;99.90;;;;;;5073785;27;20072;-77
2023/09/29 00:45:52;;;;;;;15.15;8.15;;;17.20;99.90;;;;;;5061325;28;20046;-77
2023/09/29 00:48:38;;;;;;;12.27;8.20;;;17.20;99.90;;;;;;5086857;27;20379;-77
2023/09/29 00:51:24;;;;;;;12.48;8.23;;;17.10;99.90;;;;;;5081130;27;20043;-76
2023/09/29 00:54:11;;;;;;;14.20;8.57;;;17.10;99.90;;;;;;5098778;28;20035;-77
2023/09/29 00:56:59;;;;;;;13.05;8.85;;;17.10;99.90;;;;;;5068376;28;20368;-76
2023/09/29 00:59:46;;;;;;;14.20;9.32;;;17.10;99.90;;;;;;5079853;28;20036;-77
2023/09/29 01:02:32;;;;;;;15.07;8.80;;;17.10;99.90;;;;;;5085656;27;20039;-76
2023/09/29 01:05:18;;;;;;;15.30;9.30;;;17.10;99.90;;;;;;5078242;28;20253;-76
2023/09/29 01:08:08;;;;;;;16.58;10.63;;;17.10;99.90;;;;;;5079739;28;20043;-77
2023/09/29 01:10:54;;;;;;;13.90;9.50;;;17.10;99.90;;;;;;5067762;27;20035;-77
2023/09/29 01:13:41;;;;;;;17.13;11.18;;;17.10;99.90;;;;;;5084845;28;20035;-77
2023/09/29 01:16:26;;;;;;;12.93;10.90;;;17.00;99.90;;;;;;5087206;27;20035;-77
2023/09/29 01:19:12;;;;;;;16.17;11.95;;;17.00;99.90;;;;;;5062510;28;20055;-77
2023/09/29 01:21:58;;;;;;;16.50;13.20;;;17.00;99.90;;;;;;5104325;27;20456;-77
2023/09/29 01:24:45;;;;;;;19.92;12.75;;;17.00;99.90;;;;;;5090009;27;20096;-77
2023/09/29 01:27:31;;;;;;;16.75;12.18;;;17.00;99.90;;;;;;5068932;28;20185;-77
2023/09/29 01:30:18;;;;;;;16.50;11.57;;;16.90;99.90;;;;;;5072085;27;20140;-77
2023/09/29 01:33:04;;;;;;;14.23;10.93;;;16.90;99.90;;;;;;5099384;28;20118;-77
2023/09/29 01:35:51;;;;;;;17.25;10.35;;;16.90;99.90;;;;;;5090059;27;20273;-77
2023/09/29 01:38:38;;;;;;;17.02;10.45;;;16.90;99.90;;;;;;5091392;27;20075;-77
2023/09/29 01:41:25;;;;;;;16.17;10.05;;;16.80;99.90;;;;;;5121516;27;20039;-77
2023/09/29 01:44:11;;;;;;;14.38;9.82;;;16.80;99.90;;;;;;5067410;27;20126;-77
2023/09/29 01:46:56;;;;;;;14.73;9.57;;;16.80;99.90;;;;;;5097831;28;20039;-77
2023/09/29 01:49:43;;;;;;;17.02;9.50;;;16.80;99.90;;;;;;5070942;27;20051;-77
2023/09/29 01:52:29;;;;;;;17.30;9.90;;;16.80;99.90;;;;;;5088195;28;20100;-77
2023/09/29 01:55:15;;;;;;;21.85;10.57;;;16.70;99.90;;;;;;5098037;28;20082;-77
2023/09/29 01:58:01;;;;;;;15.85;9.65;;;16.70;99.90;;;;;;5070118;27;20535;-77
2023/09/29 02:00:47;;;;;;;15.07;9.50;;;16.70;99.90;;;;;;5052344;28;20086;-77
2023/09/29 02:03:33;;;;;;;14.65;9.95;;;16.70;99.90;;;;;;5082596;27;20500;-77
2023/09/29 02:06:19;;;;;;;14.90;9.85;;;16.70;99.90;;;;;;5076149;28;20380;-77
2023/09/29 02:09:08;;;;;;;14.65;9.55;;;16.80;99.90;;;;;;5091216;28;20050;-77
2023/09/29 02:11:54;;;;;;;13.18;9.57;;;16.70;99.90;;;;;;5061331;27;20132;-77
2023/09/29 02:14:40;;;;;;;14.98;9.65;;;16.70;99.90;;;;;;5064934;28;20668;-77
2023/09/29 02:17:27;;;;;;;13.63;10.07;;;16.70;99.90;;;;;;5086621;27;20348;-75
2023/09/29 02:20:18;;;;;;;16.40;10.80;;;16.60;99.90;;;;;;5083520;28;20110;-75
2023/09/29 02:23:05;;;;;;;15.15;9.77;;;16.60;99.90;;;;;;5082890;27;20053;-76
2023/09/29 02:25:51;;;;;;;18.90;11.98;;;16.60;99.90;;;;;;5075711;28;20051;-76
2023/09/29 02:28:37;;;;;;;21.50;13.20;;;16.50;99.90;;;;;;5083161;28;20125;-76
2023/09/29 02:31:26;;;;;;;21.48;12.15;;;16.50;99.90;;;;;;5081092;28;20035;-75
2023/09/29 02:34:15;;;;;;;16.27;11.90;;;16.50;99.90;;;;;;5072655;28;20048;-75
2023/09/29 02:37:01;;;;;;;17.55;12.35;;;16.50;99.90;;;;;;5086418;28;20065;-75
2023/09/29 02:39:47;;;;;;;19.48;12.45;;;16.50;99.90;;;;;;5118462;28;20165;-76
2023/09/29 02:42:33;;;;;;;15.32;11.02;;;16.60;99.90;;;;;;5060135;28;20043;-75
2023/09/29 02:45:19;;;;;;;15.35;10.77;;;16.50;99.90;;;;;;5088559;28;20480;-75
2023/09/29 02:48:06;;;;;;;15.77;10.68;;;16.50;99.90;;;;;;5082468;28;20507;-75
2023/09/29 02:50:51;;;;;;;15.93;10.85;;;16.50;99.90;;;;;;5112498;28;20046;-76
2023/09/29 02:53:38;;;;;;;19.33;10.85;;;16.50;99.90;;;;;;5083226;28;20032;-76
2023/09/29 02:56:23;;;;;;;13.48;10.90;;;16.50;99.90;;;;;;5092987;28;20504;-75
2023/09/29 02:59:09;;;;;;;15.40;10.30;;;16.50;99.90;;;;;;5071558;28;20471;-75
2023/09/29 03:01:55;;;;;;;15.13;10.60;;;16.60;99.90;;;;;;5097327;28;20043;-75
2023/09/29 03:04:43;;;;;;;17.58;9.82;;;16.60;99.90;;;;;;5095574;28;20051;-76
2023/09/29 03:07:29;;;;;;;13.35;10.43;;;16.60;99.90;;;;;;5097136;28;20058;-76
2023/09/29 03:10:15;;;;;;;18.33;10.82;;;16.60;99.90;;;;;;5108401;28;20067;-75
2023/09/29 03:13:01;;;;;;;14.85;10.35;;;16.60;99.90;;;;;;5067877;28;20040;-75
2023/09/29 03:15:48;;;;;;;18.45;10.73;;;16.60;99.90;;;;;;5091898;28;20094;-75
2023/09/29 03:18:37;;;;;;;16.42;10.32;;;16.60;99.90;;;;;;5088584;28;20118;-75
2023/09/29 03:21:40;;;;;;;15.25;10.38;;;16.60;99.90;;;;;;5089159;28;20431;-75
2023/09/29 03:24:27;;;;;;;13.10;10.10;;;16.60;99.90;;;;;;5080874;28;20074;-76
2023/09/29 03:27:13;;;;;;;12.10;9.80;;;16.60;99.90;;;;;;5097291;28;20079;-75
2023/09/29 03:30:00;;;;;;;13.63;9.07;;;16.60;99.90;;;;;;5067575;28;20138;-75
2023/09/29 03:32:45;;;;;;;10.70;8.15;;;16.60;99.90;;;;;;5090222;28;20035;-76
2023/09/29 03:35:31;;;;;;;17.17;9.55;;;16.70;99.90;;;;;;5094525;28;20036;-76
2023/09/29 03:38:20;;;;;;;12.40;8.50;;;16.70;99.90;;;;;;5068573;28;20043;-76
2023/09/29 03:41:07;;;;;;;12.45;7.93;;;16.70;99.90;;;;;;5075740;28;20123;-76
2023/09/29 03:43:53;;;;;;;11.65;7.35;;;16.80;99.90;;;;;;5102185;27;20132;-75
2023/09/29 03:46:39;;;;;;;9.70;7.45;;;16.80;99.90;;;;;;5085989;28;20035;-76
2023/09/29 03:49:25;;;;;;;10.05;6.82;;;16.80;99.90;;;;;;5057683;28;20540;-76
2023/09/29 03:52:12;;;;;;;8.75;6.20;;;16.90;99.90;;;;;;5064654;27;20104;-76
2023/09/29 03:54:58;;;;;;;10.77;7.10;;;16.90;99.90;;;;;;5086017;28;20043;-76
2023/09/29 03:57:44;;;;;;;11.85;7.13;;;16.90;99.90;;;;;;5080632;27;20039;-76
2023/09/29 04:00:31;;;;;;;9.98;7.18;;;16.90;99.90;;;;;;5079875;28;20039;-76
2023/09/29 04:03:16;;;;;;;10.75;6.95;;;17.00;99.90;;;;;;5087533;28;20367;-76
2023/09/29 04:06:03;;;;;;;11.48;6.80;;;17.00;99.90;;;;;;5086810;27;20136;-75
2023/09/29 04:08:49;;;;;;;10.63;7.28;;;17.00;99.90;;;;;;5115005;27;20044;-76
2023/09/29 04:11:35;;;;;;;12.70;7.38;;;17.10;99.90;;;;;;5101692;27;20038;-75
2023/09/29 04:14:21;;;;;;;15.70;10.35;;;17.10;99.90;;;;;;5082594;28;20054;-75
2023/09/29 04:17:07;;;;;;;21.65;13.10;;;17.10;99.90;;;;;;5068426;28;20036;-76
2023/09/29 04:19:55;;;;;;;13.35;9.90;;;17.10;99.90;;;;;;5076777;27;20357;-76
2023/09/29 04:22:41;;;;;;;11.18;8.45;;;17.10;99.90;;;;;;5093734;28;20546;-75
2023/09/29 04:25:27;;;;;;;12.30;9.57;;;17.10;99.90;;;;;;5085235;27;20187;-75
2023/09/29 04:28:13;;;;;;;12.80;7.93;;;17.10;99.90;;;;;;5099470;28;20048;-75
2023/09/29 04:30:59;;;;;;;13.60;7.93;;;17.10;99.90;;;;;;5073708;27;20468;-75
2023/09/29 04:33:45;;;;;;;10.93;9.00;;;17.10;99.90;;;;;;5093210;28;20089;-75
2023/09/29 04:36:31;;;;;;;12.02;7.50;;;17.10;99.90;;;;;;5083855;28;20040;-75
2023/09/29 04:39:17;;;;;;;13.98;8.30;;;17.10;99.90;;;;;;5085352;27;20126;-75
2023/09/29 04:42:03;;;;;;;11.65;7.65;;;17.10;99.90;;;;;;5085641;28;20487;-75
2023/09/29 04:44:49;;;;;;;12.10;7.40;;;17.10;99.90;;;;;;5085680;27;20050;-75
2023/09/29 04:47:35;;;;;;;11.80;7.28;;;17.10;99.90;;;;;;5092900;28;20043;-76
2023/09/29 04:50:21;;;;;;;10.55;7.38;;;17.10;99.90;;;;;;5065116;28;20066;-76
2023/09/29 04:53:07;;;;;;;13.93;7.15;;;17.10;99.90;;;;;;5071502;27;20352;-75
2023/09/29 04:55:53;;;;;;;9.02;6.88;;;17.10;99.90;;;;;;5098460;28;20035;-76
2023/09/29 04:58:39;;;;;;;9.13;6.07;;;17.20;99.90;;;;;;5101070;27;20070;-76
2023/09/29 05:01:27;;;;;;;10.57;6.40;;;17.20;99.90;;;;;;5098749;28;20107;-75
2023/09/29 05:04:12;;;;;;;10.07;6.80;;;17.20;99.90;;;;;;5095339;28;20043;-75
2023/09/29 05:06:58;;;;;;;10.38;6.50;;;17.30;99.90;;;;;;5077713;27;20475;-76
2023/09/29 05:09:45;;;;;;;8.63;6.55;;;17.30;99.90;;;;;;5072730;28;20140;-76
2023/09/29 05:12:32;;;;;;;13.43;6.50;;;17.30;99.90;;;;;;5086825;27;20038;-76
2023/09/29 05:15:19;;;;;;;10.73;6.35;;;17.30;99.90;;;;;;5084107;28;20043;-75
2023/09/29 05:18:05;;;;;;;10.77;6.53;;;17.30;99.90;;;;;;5078076;28;20492;-75
2023/09/29 05:20:51;;;;;;;10.52;6.30;;;17.30;99.90;;;;;;5074815;27;20044;-76
2023/09/29 05:23:38;;;;;;;10.68;6.60;;;17.40;99.90;;;;;;5080331;28;20051;-75
2023/09/29 05:26:23;;;;;;;11.52;5.95;;;17.40;99.90;;;;;;5093698;27;20066;-75
2023/09/29 05:29:10;;;;;;;10.50;6.70;;;17.40;99.90;;;;;;5070537;28;20104;-75
2023/09/29 05:31:56;;;;;;;12.70;6.47;;;17.40;99.90;;;;;;5083329;27;20058;-75
2023/09/29 05:34:42;;;;;;;9.40;6.30;;;17.40;99.90;;;;;;5060182;28;20048;-75
2023/09/29 05:37:30;;;;;;;9.38;6.35;;;17.40;99.90;;;;;;5097963;28;20347;-75
2023/09/29 05:40:16;;;;;;;9.98;6.05;;;17.40;99.90;;;;;;5103321;27;20336;-75
2023/09/29 05:43:02;;;;;;;11.10;6.45;;;17.40;99.90;;;;;;5083886;28;20541;-75
2023/09/29 05:45:48;;;;;;;14.07;6.85;;;17.40;99.90;;;;;;5083319;28;20081;-75
2023/09/29 05:48:34;;;;;;;9.15;6.15;;;17.40;99.90;;;;;;5063880;28;20040;-75
2023/09/29 05:51:21;;;;;;;12.63;5.70;;;17.40;99.90;;;;;;5082176;28;20031;-76
2023/09/29 05:54:06;;;;;;;10.13;5.93;;;17.40;99.90;;;;;;5089709;27;20046;-75
2023/09/29 05:56:52;;;;;;;9.27;5.88;;;17.40;99.90;;;;;;5068934;28;20448;-75
2023/09/29 05:59:38;;;;;;;9.82;5.95;;;17.40;99.90;;;;;;5082175;27;20214;-76
2023/09/29 06:02:24;;;;;;;10.73;5.88;;;17.50;99.90;;;;;;5098545;28;20428;-75
2023/09/29 06:05:11;;;;;;;10.52;6.47;;;17.50;99.90;;;;;;5078996;28;20043;-75
2023/09/29 06:07:57;;;;;;;10.70;5.82;;;17.50;99.90;;;;;;5084163;27;20130;-74
2023/09/29 06:10:44;;;;;;;9.40;5.65;;;17.50;99.90;;;;;;5078548;28;20499;-74
2023/09/29 06:13:30;;;;;;;9.13;6.00;;;17.50;99.90;;;;;;5085050;28;20066;-75
2023/09/29 06:16:16;;;;;;;8.50;5.65;;;17.50;99.90;;;;;;5098145;28;20047;-77
2023/09/29 06:19:02;;;;;;;10.85;5.47;;;17.50;99.90;;;;;;5081806;27;20070;-77
2023/09/29 06:21:48;;;;;;;9.13;5.25;;;17.60;99.90;;;;;;5055031;28;20314;-76
2023/09/29 06:24:34;;;;;;;7.30;4.95;;;17.60;99.90;;;;;;5077643;28;20334;-76
2023/09/29 06:27:20;;;;;;;7.88;5.50;;;17.60;99.90;;;;;;5075198;28;20800;-76
2023/09/29 06:30:06;;;;;;;8.82;5.18;;;17.60;99.90;;;;;;5078716;28;20031;-77
2023/09/29 06:32:52;;;;;;;8.45;5.30;;;17.60;99.90;;;;;;5080305;28;20390;-77
2023/09/29 06:35:39;;;;;;;11.35;5.47;;;17.70;99.90;;;;;;5067935;28;20050;-76
2023/09/29 06:38:25;;;;;;;10.35;5.80;;;17.70;99.90;;;;;;5082337;28;20040;-77
2023/09/29 06:41:11;;;;;;;9.40;5.07;;;17.70;99.90;;;;;;5068134;28;20047;-76
2023/09/29 06:43:57;;;;;;;9.57;5.40;;;17.80;99.90;;;;;;5064379;28;20048;-76
2023/09/29 06:46:43;;;;;;;10.93;4.65;;;17.80;99.90;;;;;;5084878;28;20410;-75
2023/09/29 06:49:29;;;;;;;10.20;5.03;;;17.80;99.90;;;;;;5092090;28;20046;-75
2023/09/29 06:52:15;;;;;;;6.90;4.78;;;17.90;99.90;;;;;;5057127;28;20054;-75
2023/09/29 06:55:01;;;;;;;11.57;6.05;;;17.90;99.90;;;;;;5088525;28;20115;-76
2023/09/29 06:57:48;;;;;;;6.95;5.30;;;17.90;99.90;;;;;;5082911;28;20155;-75
2023/09/29 07:00:34;;;;;;;9.93;5.30;;;18.00;99.90;;;;;;5090970;28;20118;-76
2023/09/29 07:03:20;;;;;;;7.90;5.03;;;18.00;99.90;;;;;;5083183;28;20077;-76
2023/09/29 07:06:06;;;;;;;10.95;5.43;;;18.00;99.90;;;;;;5092008;28;20035;-76
2023/09/29 07:08:52;;;;;;;13.77;6.30;;;18.00;99.90;;;;;;5073873;28;20076;-76
2023/09/29 07:11:40;;;;;;;12.02;5.22;;;18.00;99.90;;;;;;5079858;28;20067;-76
2023/09/29 07:14:26;;;;;;;6.60;4.65;;;18.10;99.90;;;;;;5094017;28;20039;-76
2023/09/29 07:17:12;;;;;;;8.80;4.88;;;18.10;99.90;;;;;;5099312;28;20395;-76
2023/09/29 07:19:59;;;;;;;7.70;4.95;;;18.10;99.90;;;;;;5086364;28;20039;-76
2023/09/29 07:22:46;;;;;;;6.45;5.25;;;18.10;99.90;;;;;;5079590;27;20032;-75
2023/09/29 07:25:33;;;;;;;11.15;5.38;;;18.20;99.90;;;;;;5080899;28;20203;-76
2023/09/29 07:28:21;;;;;;;8.63;4.13;;;18.20;99.90;;;;;;5115070;27;20077;-75
2023/09/29 07:31:07;;;;;;;9.13;5.20;;;18.20;99.90;;;;;;5101575;28;20063;-76
2023/09/29 07:33:53;;;;;;;9.35;5.60;;;18.20;99.90;;;;;;5068108;27;20525;-76
2023/09/29 07:36:41;;;;;;;10.30;5.32;;;18.30;99.90;;;;;;5080967;28;20105;-76
2023/09/29 07:39:27;;;;;;;8.38;5.47;;;18.30;99.90;;;;;;5064734;28;20039;-75
2023/09/29 07:42:13;;;;;;;8.07;5.43;;;18.30;99.90;;;;;;5084764;27;20043;-75
2023/09/29 07:44:59;;;;;;;9.90;5.55;;;18.40;99.90;;;;;;5082152;28;20050;-76
2023/09/29 07:47:45;;;;;;;13.02;5.00;;;18.40;99.90;;;;;;5087993;27;20142;-76
2023/09/29 07:50:31;;;;;;;11.55;5.50;;;18.40;99.90;;;;;;5097158;28;20036;-76
2023/09/29 07:53:16;;;;;;;9.13;5.05;;;18.40;99.90;;;;;;5081475;28;20031;-75
2023/09/29 07:56:02;;;;;;;7.53;4.80;;;18.50;99.90;;;;;;5086198;27;20043;-75
2023/09/29 07:58:48;;;;;;;9.18;5.03;;;18.50;99.90;;;;;;5082024;28;20467;-75
2023/09/29 08:01:34;;;;;;;8.52;4.90;;;18.50;99.90;;;;;;5087011;27;20040;-75
2023/09/29 08:04:22;;;;;;;7.32;4.90;;;18.50;99.90;;;;;;5074876;28;20105;-76
2023/09/29 08:07:08;;;;;;;8.73;4.33;;;18.50;99.90;;;;;;5084986;28;20039;-75
2023/09/29 08:09:54;;;;;;;7.88;4.45;;;18.60;99.90;;;;;;5085240;27;20285;-76
2023/09/29 08:12:40;;;;;;;11.25;4.30;;;18.60;99.90;;;;;;5080911;28;20046;-77
2023/09/29 08:15:26;;;;;;;7.22;4.57;;;18.60;99.90;;;;;;5086876;27;20047;-76
2023/09/29 08:18:12;;;;;;;7.82;4.38;;;18.60;99.90;;;;;;5082688;28;20036;-77
2023/09/29 08:20:58;;;;;;;10.68;4.80;;;18.70;99.90;;;;;;5088090;28;20035;-75
2023/09/29 08:23:44;;;;;;;12.18;5.82;;;18.70;99.90;;;;;;5092537;27;20317;-76
2023/09/29 08:26:31;;;;;;;9.90;5.18;;;18.70;99.90;;;;;;5098731;28;20125;-75
2023/09/29 08:29:17;;;;;;;6.55;4.00;;;18.70;99.90;;;;;;5083514;27;20067;-76
2023/09/29 08:32:03;;;;;;;8.60;5.03;;;18.70;99.90;;;;;;5084740;28;20074;-76
2023/09/29 08:34:49;;;;;;;10.32;5.85;;;18.70;99.90;;;;;;5065994;27;20043;-76
2023/09/29 08:37:35;;;;;;;10.30;5.25;;;18.70;99.90;;;;;;5079099;27;20123;-76
2023/09/29 08:40:21;;;;;;;12.00;5.85;;;18.70;99.90;;;;;;5083159;28;20051;-76
2023/09/29 08:43:10;;;;;;;11.27;6.88;;;18.80;99.90;;;;;;5068891;27;20502;-75
2023/09/29 08:45:58;;;;;;;11.55;5.95;;;18.80;99.90;;;;;;5079105;28;20524;-76
2023/09/29 08:48:45;;;;;;;13.05;7.10;;;18.80;99.90;;;;;;5072154;27;20044;-75
2023/09/29 08:51:33;;;;;;;11.25;6.38;;;18.80;99.90;;;;;;5064051;28;20032;-75
2023/09/29 08:54:19;;;;;;;13.88;6.60;;;18.90;99.90;;;;;;5064615;28;20055;-76
2023/09/29 08:57:05;;;;;;;11.23;5.95;;;18.90;99.90;;;;;;5058178;28;20073;-76
2023/09/29 08:59:52;;;;;;;13.23;5.72;;;18.90;99.90;;;;;;5067417;28;20040;-75
2023/09/29 09:02:43;;;;;;;16.77;6.47;;;18.90;99.90;;;;;;5086900;27;20061;-76
2023/09/29 09:05:29;;;;;;;9.43;6.75;;;18.90;99.90;;;;;;5081639;28;20127;-75
2023/09/29 09:08:15;;;;;;;14.63;6.90;;;18.90;99.90;;;;;;5069852;27;20748;-75
2023/09/29 09:11:02;;;;;;;8.60;6.28;;;19.00;99.90;;;;;;5064696;28;20146;-75
2023/09/29 09:13:58;;;;;;;10.40;6.10;;;19.00;99.90;;;;;;5068192;28;20431;-76
2023/09/29 09:16:45;;;;;;;10.88;6.38;;;19.00;99.90;;;;;;5076833;27;20028;-76
2023/09/29 09:19:31;;;;;;;15.02;6.07;;;19.00;99.90;;;;;;5113195;27;20479;-75
2023/09/29 09:22:21;;;;;;;10.27;6.30;;;19.00;99.90;;;;;;5096086;27;20046;-75
2023/09/29 09:25:12;;;;;;;10.73;5.75;;;19.00;99.90;;;;;;5065129;28;20047;-76
2023/09/29 09:27:59;;;;;;;12.45;6.80;;;19.00;99.90;;;;;;5072802;27;20414;-75
2023/09/29 09:30:51;;;;;;;10.15;5.93;;;19.00;99.90;;;;;;5091708;28;20046;-76
2023/09/29 09:33:37;;;;;;;8.40;5.93;;;19.10;99.90;;;;;;5068244;28;20360;-76
2023/09/29 09:36:23;;;;;;;8.88;5.72;;;19.20;99.90;;;;;;5068780;28;20039;-76
2023/09/29 09:39:10;;;;;;;9.95;5.70;;;19.20;99.90;;;;;;5076635;28;20074;-76
2023/09/29 09:41:56;;;;;;;9.65;5.20;;;19.20;99.90;;;;;;5070679;27;20039;-75
2023/09/29 09:44:43;;;;;;;11.60;7.30;;;19.20;99.90;;;;;;5060294;28;20337;-75
2023/09/29 09:47:29;;;;;;;13.55;7.22;;;19.20;99.90;;;;;;5075399;28;20051;-76
2023/09/29 09:50:15;;;;;;;12.07;8.13;;;19.20;99.90;;;;;;5062702;27;20062;-75
2023/09/29 09:53:02;;;;;;;11.70;6.70;;;19.30;99.90;;;;;;5079300;28;20035;-75
2023/09/29 09:56:21;;;;;;;9.52;5.82;;;19.30;99.90;;;;;;5095680;27;20085;-76
2023/09/29 09:59:07;;;;;;;8.90;5.25;;;19.40;99.90;;;;;;5098324;28;20039;-76
2023/09/29 10:01:54;;;;;;;10.07;5.15;;;19.40;99.90;;;;;;5082774;27;20047;-75
2023/09/29 10:04:40;;;;;;;9.95;5.80;;;19.40;99.90;;;;;;5095917;28;20464;-75
2023/09/29 10:07:26;;;;;;;11.38;6.05;;;19.50;99.90;;;;;;5085067;28;20118;-76
2023/09/29 10:10:25;;;;;;;7.93;5.35;;;19.50;99.90;;;;;;5092372;28;20063;-76
2023/09/29 10:13:12;;;;;;;8.02;5.20;;;19.60;99.90;;;;;;5091006;27;20050;-76
2023/09/29 10:16:01;;;;;;;9.20;5.13;;;19.60;99.90;;;;;;5078102;28;20063;-75
2023/09/29 10:18:59;;;;;;;5.57;4.40;;;19.70;99.90;;;;;;5093201;28;20046;-75
2023/09/29 10:21:45;;;;;;;10.07;4.70;;;19.80;99.90;;;;;;5061260;28;20066;-75
2023/09/29 10:24:31;;;;;;;9.52;4.82;;;19.90;99.90;;;;;;5082926;28;20756;-76
2023/09/29 10:27:34;;;;;;;10.68;4.72;;;19.90;99.90;;;;;;5077071;27;20039;-75
2023/09/29 10:30:26;;;;;;;7.95;4.50;;;20.00;99.90;;;;;;5066239;28;20490;-75
2023/09/29 10:33:12;;;;;;;6.57;3.95;;;20.10;99.90;;;;;;5083110;27;20122;-76
2023/09/29 10:35:58;;;;;;;7.07;4.20;;;20.10;99.90;;;;;;5063190;28;20084;-76
2023/09/29 10:38:44;;;;;;;9.68;4.00;;;20.20;99.90;;;;;;5082517;28;20075;-76
2023/09/29 10:41:32;;;;;;;8.32;3.95;;;20.30;99.90;;;;;;5096432;28;20131;-76
2023/09/29 10:44:17;;;;;;;5.72;4.18;;;20.40;99.90;;;;;;5092493;28;20074;-76
2023/09/29 10:47:05;;;;;;;5.60;3.63;;;20.50;99.90;;;;;;5074107;28;20043;-76
2023/09/29 10:49:51;;;;;;;6.38;4.05;;;20.60;99.90;;;;;;5077805;28;20079;-76
2023/09/29 10:52:37;;;;;;;6.68;4.07;;;20.70;99.90;;;;;;5066556;28;20040;-77
2023/09/29 10:55:23;;;;;;;7.00;3.70;;;20.70;99.90;;;;;;5089750;28;20500;-76
2023/09/29 10:58:13;;;;;;;8.27;4.32;;;20.80;99.90;;;;;;5091402;28;20043;-75
2023/09/29 11:00:59;;;;;;;5.95;3.63;;;20.90;99.90;;;;;;5073970;28;20036;-76
2023/09/29 11:03:45;;;;;;;9.52;4.35;;;20.90;99.90;;;;;;5095237;28;20093;-77
2023/09/29 11:06:43;;;;;;;8.00;4.20;;;21.00;99.90;;;;;;5083934;28;20088;-78
2023/09/29 11:09:31;;;;;;;8.63;3.47;;;21.00;99.90;;;;;;5081120;28;20044;-78
2023/09/29 11:12:18;;;;;;;6.80;3.67;;;21.00;99.90;;;;;;5069284;28;20376;-77
2023/09/29 11:15:08;;;;;;;6.83;3.97;;;21.10;99.90;;;;;;5058189;28;20070;-78
2023/09/29 11:17:57;;;;;;;7.75;4.28;;;21.10;99.90;;;;;;5094347;28;20344;-77
2023/09/29 11:20:51;;;;;;;6.97;3.92;;;21.10;99.90;;;;;;5091798;28;20039;-78
2023/09/29 11:23:43;;;;;;;9.27;3.92;;;21.10;99.90;;;;;;5097217;28;20515;-78
2023/09/29 11:26:29;;;;;;;6.28;3.50;;;21.10;99.90;;;;;;5062354;28;20432;-77
2023/09/29 11:29:20;;;;;;;7.32;3.40;;;21.20;99.90;;;;;;5085333;28;20353;-77
2023/09/29 11:32:08;;;;;;;6.57;3.63;;;21.20;99.90;;;;;;5114093;28;20389;-77
2023/09/29 11:34:55;;;;;;;7.10;4.05;;;21.30;99.90;;;;;;5060582;28;20086;-77
2023/09/29 11:37:43;;;;;;;8.13;3.83;;;21.30;99.90;;;;;;5078150;28;20047;-77
2023/09/29 11:40:29;;;;;;;9.68;3.60;;;21.30;99.90;;;;;;5078221;28;20051;-77
2023/09/29 11:43:15;;;;;;;5.97;3.28;;;21.50;99.90;;;;;;5067900;28;20410;-77
2023/09/29 11:46:03;;;;;;;9.32;3.78;;;21.80;99.90;;;;;;5068286;28;20039;-79
2023/09/29 11:48:53;;;;;;;8.15;3.88;;;22.10;99.90;;;;;;5080884;28;20437;-78
2023/09/29 11:51:39;;;;;;;7.15;3.30;;;22.40;99.90;;;;;;5108274;28;20066;-77
2023/09/29 11:54:25;;;;;;;14.23;5.38;;;22.70;99.90;;;;;;5063728;28;20063;-77
2023/09/29 11:57:11;;;;;;;8.98;4.43;;;23.00;99.90;;;;;;5079882;28;20039;-78
2023/09/29 11:59:57;;;;;;;7.85;3.72;;;23.30;99.90;;;;;;5066673;28;20035;-77
2023/09/29 12:02:43;;;;;;;7.45;3.42;;;23.60;99.90;;;;;;5081359;28;20048;-77
2023/09/29 12:05:29;;;;;;;7.72;3.20;;;23.60;99.90;;;;;;5093551;28;20043;-77
2023/09/29 12:08:15;;;;;;;7.00;3.20;;;23.80;99.90;;;;;;5073464;27;20047;-77
2023/09/29 12:11:07;;;;;;;6.30;3.40;;;23.80;99.90;;;;;;5098354;28;20081;-77
2023/09/29 12:13:53;;;;;;;7.22;2.97;;;23.70;99.90;;;;;;5067867;28;20043;-76
2023/09/29 12:16:39;;;;;;;5.88;3.33;;;23.80;99.90;;;;;;5071841;28;20561;-77
2023/09/29 12:19:25;;;;;;;6.15;3.22;;;24.10;99.90;;;;;;5074873;27;20493;-77
2023/09/29 12:22:11;;;;;;;5.05;3.00;;;24.30;99.90;;;;;;5080210;28;20039;-76
2023/09/29 12:24:57;;;;;;;8.02;3.28;;;24.70;99.90;;;;;;5075147;27;20345;-77
2023/09/29 12:27:44;;;;;;;9.20;3.00;;;25.00;99.90;;;;;;5061128;28;20071;-77
2023/09/29 12:30:30;;;;;;;4.50;2.60;;;25.40;99.90;;;;;;5086513;28;20035;-78
2023/09/29 12:33:17;;;;;;;7.75;2.97;;;25.30;99.90;;;;;;5063620;27;20039;-77
2023/09/29 12:36:03;;;;;;;6.07;3.08;;;25.30;99.90;;;;;;5067885;28;20550;-77
2023/09/29 12:38:49;;;;;;;5.30;2.60;;;25.00;99.90;;;;;;5102605;27;20040;-78
2023/09/29 12:41:37;;;;;;;5.88;3.00;;;24.90;99.90;;;;;;5083349;28;20047;-77
2023/09/29 12:44:23;;;;;;;5.90;2.92;;;24.80;99.90;;;;;;5083045;28;20050;-77
2023/09/29 12:47:09;;;;;;;6.85;2.90;;;24.70;99.90;;;;;;5059833;28;20379;-75
2023/09/29 12:49:55;;;;;;;7.78;2.78;;;25.30;99.90;;;;;;5068922;28;20040;-78
2023/09/29 12:52:41;;;;;;;6.10;2.67;;;25.80;99.90;;;;;;5086898;27;20031;-77
2023/09/29 12:55:27;;;;;;;7.18;2.72;;;26.20;99.90;;;;;;5066698;28;20357;-77
2023/09/29 12:58:13;;;;;;;5.38;3.05;;;26.30;98.70;;;;;;5084648;28;20179;-79
2023/09/29 13:00:59;;;;;;;6.32;3.28;;;26.00;98.20;;;;;;5065742;27;20043;-78
2023/09/29 13:03:45;;;;;;;6.97;3.10;;;25.40;98.20;;;;;;5068178;28;20349;-77
2023/09/29 13:06:31;;;;;;;6.47;2.63;;;25.30;99.20;;;;;;5074809;27;20039;-78
2023/09/29 13:09:18;;;;;;;9.07;4.35;;;25.10;98.80;;;;;;5066664;28;20047;-78
2023/09/29 13:12:04;;;;;;;7.78;2.88;;;24.90;99.30;;;;;;5093441;27;20039;-78
2023/09/29 13:14:52;;;;;;;7.75;3.38;;;24.70;99.90;;;;;;5086321;27;20066;-78
2023/09/29 13:17:38;;;;;;;6.22;2.97;;;24.60;99.90;;;;;;5083547;28;20035;-78
2023/09/29 13:20:24;;;;;;;9.73;3.63;;;24.50;99.90;;;;;;5071771;27;20047;-76
2023/09/29 13:23:10;;;;;;;7.05;2.90;;;24.40;99.80;;;;;;5079207;28;20089;-77
2023/09/29 13:25:56;;;;;;;5.82;3.03;;;24.30;99.90;;;;;;5069256;27;20052;-78
2023/09/29 13:28:42;;;;;;;7.93;3.03;;;24.20;99.90;;;;;;5093605;28;20043;-78
2023/09/29 13:31:28;;;;;;;4.45;3.08;;;24.10;99.90;;;;;;5066155;28;20154;-77
2023/09/29 13:34:15;;;;;;;6.05;3.13;;;24.10;99.90;;;;;;5084018;28;20035;-77
2023/09/29 13:37:02;;;;;;;9.80;3.42;;;23.90;99.90;;;;;;5085831;28;20362;-78
2023/09/29 13:39:48;;;;;;;7.45;2.97;;;23.80;99.90;;;;;;5085376;27;20483;-77
2023/09/29 13:42:37;;;;;;;7.15;3.13;;;23.70;99.90;;;;;;5085906;28;20047;-78
2023/09/29 13:45:23;;;;;;;9.18;3.63;;;23.70;99.90;;;;;;5084325;28;20039;-78
2023/09/29 13:48:09;;;;;;;6.57;3.53;;;23.60;99.90;;;;;;5085340;27;20035;-77
2023/09/29 13:50:55;;;;;;;7.68;3.28;;;23.60;99.90;;;;;;5080791;28;20040;-78
2023/09/29 13:53:42;;;;;;;5.28;3.08;;;23.50;99.90;;;;;;5087121;27;20080;-78
2023/09/29 13:56:28;;;;;;;7.25;2.88;;;23.50;99.90;;;;;;5080769;28;20044;-79
2023/09/29 13:59:14;;;;;;;6.80;3.13;;;23.50;99.90;;;;;;5086477;27;20040;-78
2023/09/29 14:02:07;;;;;;;6.10;3.17;;;23.50;99.90;;;;;;5080594;28;20051;-78
2023/09/29 14:04:53;;;;;;;8.57;3.55;;;23.60;99.90;;;;;;5095764;28;20517;-77
2023/09/29 14:07:39;;;;;;;9.85;3.60;;;23.60;99.90;;;;;;5081550;27;20344;-79
2023/09/29 14:10:25;;;;;;;6.75;3.35;;;23.60;99.90;;;;;;5112313;28;20032;-78
2023/09/29 14:13:11;;;;;;;8.55;3.42;;;23.60;99.90;;;;;;5081759;27;20043;-77
2023/09/29 14:15:57;;;;;;;10.70;3.67;;;23.60;99.90;;;;;;5093540;28;20118;-78
2023/09/29 14:18:43;;;;;;;8.82;3.30;;;23.50;99.90;;;;;;5072649;28;20440;-78
2023/09/29 14:21:29;;;;;;;10.13;3.92;;;23.50;99.90;;;;;;5098748;27;20184;-76